createdAt,value
2018-05-07T00:02:10.793Z,98635.67
2018-05-07T00:04:39.045Z,98634.38
2018-05-07T00:07:09.194Z,98633.95
2018-05-07T00:09:38.817Z,98633.60
2018-05-07T00:12:08.551Z,98635.28
2018-05-07T00:14:36.801Z,98631.02
2018-05-07T00:17:06.086Z,98638.69
2018-05-07T00:19:34.324Z,98633.58
2018-05-07T00:22:03.376Z,98633.23
2018-05-07T00:24:31.618Z,98628.55
2018-05-07T00:27:01.126Z,98630.70
2018-05-07T00:29:30.126Z,98625.62
2018-05-07T00:31:58.995Z,98627.76
2018-05-07T00:34:28.024Z,98624.38
2018-05-07T00:36:56.282Z,98628.20
2018-05-07T00:39:24.540Z,98623.55
2018-05-07T00:41:53.560Z,98618.06
2018-05-07T00:44:22.417Z,98626.55
2018-05-07T00:46:51.450Z,98622.75
2018-05-07T00:49:19.696Z,98629.14
2018-05-07T00:51:48.719Z,98626.19
2018-05-07T00:54:19.159Z,98626.20
2018-05-07T00:56:48.073Z,98629.62
2018-05-07T00:59:16.336Z,98625.38
2018-05-07T01:01:44.590Z,98627.12
2018-05-07T01:04:12.839Z,98628.84
2018-05-07T01:06:41.864Z,98629.27
2018-05-07T01:09:10.107Z,98622.87
2018-05-07T01:11:39.030Z,98622.08
2018-05-07T01:14:07.278Z,98621.19
2018-05-07T01:16:36.255Z,98616.13
2018-05-07T01:19:05.281Z,98615.71
2018-05-07T01:21:34.049Z,98617.44
2018-05-07T01:24:02.298Z,98620.39
2018-05-07T01:26:30.557Z,98616.20
2018-05-07T01:28:58.814Z,98616.19
2018-05-07T01:31:27.287Z,98610.24
2018-05-07T01:33:57.177Z,98613.22
2018-05-07T01:36:25.417Z,98615.78
2018-05-07T01:38:53.757Z,98612.42
2018-05-07T01:41:22.994Z,98617.52
2018-05-07T01:43:51.801Z,98617.95
2018-05-07T01:46:20.815Z,98617.11
2018-05-07T01:48:50.066Z,98616.73
2018-05-07T01:51:18.312Z,98617.56
2018-05-07T01:53:50.304Z,98616.30
2018-05-07T01:56:18.548Z,98604.89
2018-05-07T01:58:47.029Z,98605.77
2018-05-07T02:01:15.278Z,98602.34
2018-05-07T02:03:43.526Z,98601.52
2018-05-07T02:06:11.776Z,98603.66
2018-05-07T02:08:40.018Z,98600.25
2018-05-07T02:11:10.751Z,98601.53
2018-05-07T02:13:39.000Z,98599.81
2018-05-07T02:16:12.566Z,98591.37
2018-05-07T02:18:41.063Z,98600.69
2018-05-07T02:21:09.309Z,98590.51
2018-05-07T02:23:37.556Z,98591.79
2018-05-07T02:26:06.985Z,98590.95
2018-05-07T02:28:35.234Z,98588.41
2018-05-07T02:31:03.495Z,98584.16
2018-05-07T02:33:33.121Z,98586.73
2018-05-07T02:36:01.371Z,98585.44
2018-05-07T02:38:30.397Z,98584.19
2018-05-07T02:40:58.632Z,98579.95
2018-05-07T02:43:27.655Z,98576.57
2018-05-07T02:45:55.903Z,98571.88
2018-05-07T02:48:24.932Z,98568.92
2018-05-07T02:50:54.736Z,98567.64
2018-05-07T02:53:22.989Z,98570.19
2018-05-07T02:55:52.094Z,98570.18
2018-05-07T02:58:21.554Z,98565.95
2018-05-07T03:00:49.802Z,98566.41
2018-05-07T03:03:18.054Z,98566.83
2018-05-07T03:05:46.309Z,98563.00
2018-05-07T03:08:15.319Z,98567.23
2018-05-07T03:10:43.578Z,98564.27
2018-05-07T03:13:12.606Z,98563.44
2018-05-07T03:15:40.848Z,98565.95
2018-05-07T03:18:09.974Z,98566.38
2018-05-07T03:20:38.219Z,98565.52
2018-05-07T03:23:08.217Z,98566.38
2018-05-07T03:25:37.030Z,98565.54
2018-05-07T03:28:05.280Z,98560.03
2018-05-07T03:30:33.540Z,98559.61
2018-05-07T03:33:02.693Z,98565.09
2018-05-07T03:35:30.939Z,98565.11
2018-05-07T03:37:59.960Z,98560.44
2018-05-07T03:40:28.294Z,98562.13
2018-05-07T03:42:58.002Z,98559.59
2018-05-07T03:45:26.235Z,98557.05
2018-05-07T03:47:54.481Z,98562.13
2018-05-07T03:50:24.486Z,98559.16
2018-05-07T03:52:53.522Z,98556.17
2018-05-07T03:55:22.926Z,98562.09
2018-05-07T03:57:51.178Z,98557.05
2018-05-07T04:00:19.416Z,98560.44
2018-05-07T04:02:47.673Z,98557.91
2018-05-07T04:05:16.748Z,98558.32
2018-05-07T04:07:44.987Z,98552.80
2018-05-07T04:10:13.233Z,98557.05
2018-05-07T04:12:41.485Z,98560.43
2018-05-07T04:15:09.734Z,98562.97
2018-05-07T04:17:56.549Z,98557.06
2018-05-07T04:20:45.532Z,98558.73
2018-05-07T04:23:32.212Z,98563.84
2018-05-07T04:26:01.177Z,98564.25
2018-05-07T04:28:30.196Z,98559.18
2018-05-07T04:30:58.449Z,98560.45
2018-05-07T04:33:28.530Z,98557.50
2018-05-07T04:35:56.771Z,98556.23
2018-05-07T04:38:25.018Z,98558.78
2018-05-07T04:40:54.021Z,98558.34
2018-05-07T04:43:22.277Z,98561.73
2018-05-07T04:45:51.289Z,98559.20
2018-05-07T04:48:20.226Z,98562.59
2018-05-07T04:50:50.704Z,98563.84
2018-05-07T04:53:19.721Z,98565.12
2018-05-07T04:55:47.973Z,98560.87
2018-05-07T04:58:16.216Z,98565.12
2018-05-07T05:00:45.644Z,98568.91
2018-05-07T05:03:15.329Z,98574.00
2018-05-07T05:05:43.583Z,98577.83
2018-05-07T05:08:11.823Z,98577.41
2018-05-07T05:10:40.081Z,98572.74
2018-05-07T05:13:09.989Z,98579.92
2018-05-07T05:15:39.000Z,98582.08
2018-05-07T05:18:07.250Z,98577.84
2018-05-07T05:20:36.264Z,98578.70
2018-05-07T05:23:05.143Z,98578.67
2018-05-07T05:25:34.179Z,98585.46
2018-05-07T05:28:02.431Z,98584.60
2018-05-07T05:30:30.690Z,98587.14
2018-05-07T05:32:59.692Z,98586.27
2018-05-07T05:35:27.949Z,98587.95
2018-05-07T05:37:56.961Z,98578.20
2018-05-07T05:40:25.213Z,98579.05
2018-05-07T05:42:55.134Z,98572.66
2018-05-07T05:45:24.147Z,98578.17
2018-05-07T05:47:52.473Z,98570.97
2018-05-07T05:50:21.245Z,98573.46
2018-05-07T05:52:50.050Z,98570.06
2018-05-07T05:55:18.960Z,98579.33
2018-05-07T05:57:48.414Z,98580.99
2018-05-07T06:00:16.662Z,98577.17
2018-05-07T06:02:45.672Z,98584.35
2018-05-07T06:05:14.451Z,98582.65
2018-05-07T06:07:43.271Z,98578.88
2018-05-07T06:10:13.398Z,98582.63
2018-05-07T06:12:43.149Z,98582.18
2018-05-07T06:15:11.376Z,98580.01
2018-05-07T06:17:44.303Z,98576.59
2018-05-07T06:20:12.553Z,98579.90
2018-05-07T06:22:40.799Z,98572.23
2018-05-07T06:25:09.049Z,98578.54
2018-05-07T06:27:38.877Z,98576.80
2018-05-07T06:30:07.123Z,98572.52
2018-05-07T06:32:36.139Z,98572.44
2018-05-07T06:35:04.388Z,98577.84
2018-05-07T06:37:34.085Z,98577.69
2018-05-07T06:40:02.333Z,98570.55
2018-05-07T06:42:30.585Z,98570.36
2018-05-07T06:44:58.848Z,98569.38
2018-05-07T06:47:27.101Z,98573.59
2018-05-07T06:49:56.121Z,98572.95
2018-05-07T06:52:24.373Z,98569.80
2018-05-07T06:54:53.395Z,98569.46
2018-05-07T06:57:22.664Z,98566.64
2018-05-07T06:59:51.691Z,98567.44
2018-05-07T07:02:19.969Z,98569.61
2018-05-07T07:04:48.218Z,98567.52
2018-05-07T07:07:17.234Z,98560.64
2018-05-07T07:09:45.490Z,98561.18
2018-05-07T07:12:14.504Z,98560.79
2018-05-07T07:14:43.692Z,98562.41
2018-05-07T07:17:11.942Z,98556.20
2018-05-07T07:19:40.961Z,98557.66
2018-05-07T07:22:09.205Z,98555.72
2018-05-07T07:24:37.460Z,98552.77
2018-05-07T07:27:06.789Z,98550.98
2018-05-07T07:29:35.029Z,98552.55
2018-05-07T07:32:03.295Z,98555.50
2018-05-07T07:34:31.542Z,98557.73
2018-05-07T07:36:59.789Z,98555.77
2018-05-07T07:39:28.837Z,98557.05
2018-05-07T07:41:57.834Z,98557.20
2018-05-07T07:44:26.086Z,98560.10
2018-05-07T07:46:54.345Z,98558.57
2018-05-07T07:49:23.643Z,98561.80
2018-05-07T07:51:52.653Z,98551.42
2018-05-07T07:54:20.897Z,98549.15
2018-05-07T07:56:49.908Z,98545.97
2018-05-07T07:59:18.186Z,98544.20
2018-05-07T08:01:46.408Z,98541.03
2018-05-07T08:04:15.293Z,98551.66
2018-05-07T08:06:44.185Z,98542.00
2018-05-07T08:09:12.429Z,98541.59
2018-05-07T08:11:40.777Z,98539.45
2018-05-07T08:14:09.777Z,98535.15
2018-05-07T08:16:38.792Z,98531.88
2018-05-07T08:19:07.578Z,98522.67
2018-05-07T08:21:35.827Z,98522.39
2018-05-07T08:24:05.898Z,98532.09
2018-05-07T08:26:35.074Z,98520.42
2018-05-07T08:29:03.325Z,98523.53
2018-05-07T08:31:33.414Z,98514.16
2018-05-07T08:34:02.505Z,98512.68
2018-05-07T08:36:32.323Z,98512.80
2018-05-07T08:39:01.423Z,98513.00
2018-05-07T08:41:30.489Z,98506.53
2018-05-07T08:43:58.732Z,98504.92
2018-05-07T08:46:27.005Z,98496.00
2018-05-07T08:48:56.258Z,98492.39
2018-05-07T08:51:25.541Z,98492.45
2018-05-07T08:53:54.009Z,98493.41
2018-05-07T08:56:22.262Z,98494.78
2018-05-07T08:58:51.380Z,98492.20
2018-05-07T09:01:19.664Z,98491.06
2018-05-07T09:03:48.103Z,98491.30
2018-05-07T09:06:16.346Z,98486.55
2018-05-07T09:08:44.592Z,98491.31
2018-05-07T09:11:12.835Z,98487.73
2018-05-07T09:13:41.110Z,98484.63
2018-05-07T09:16:10.130Z,98480.31
2018-05-07T09:18:38.376Z,98475.23
2018-05-07T09:21:06.644Z,98477.70
2018-05-07T09:23:35.108Z,98466.70
2018-05-07T09:26:03.343Z,98461.97
2018-05-07T09:28:31.604Z,98473.01
2018-05-07T09:31:03.579Z,98463.70
2018-05-07T09:33:31.851Z,98466.68
2018-05-07T09:36:00.220Z,98459.89
2018-05-07T09:38:28.456Z,98460.84
2018-05-07T09:40:57.472Z,98455.81
2018-05-07T09:43:25.731Z,98448.28
2018-05-07T09:45:54.740Z,98445.32
2018-05-07T09:48:24.148Z,98447.52
2018-05-07T09:50:52.897Z,98434.16
2018-05-07T09:53:21.680Z,98444.63
2018-05-07T09:55:50.475Z,98444.16
2018-05-07T09:58:19.481Z,98446.34
2018-05-07T10:00:48.504Z,98440.45
2018-05-07T10:03:16.756Z,98441.52
2018-05-07T10:05:45.687Z,98437.93
2018-05-07T10:08:14.975Z,98436.96
2018-05-07T10:10:44.319Z,98434.47
2018-05-07T10:13:13.329Z,98432.75
2018-05-07T10:15:43.282Z,98431.11
2018-05-07T10:18:12.077Z,98433.97
2018-05-07T10:20:40.326Z,98425.66
2018-05-07T10:23:08.577Z,98430.09
2018-05-07T10:25:37.595Z,98428.12
2018-05-07T10:28:05.857Z,98427.55
2018-05-07T10:30:35.690Z,98429.61
2018-05-07T10:33:03.938Z,98427.95
2018-05-07T10:35:32.969Z,98424.00
2018-05-07T10:38:01.226Z,98419.72
2018-05-07T10:40:30.656Z,98424.23
2018-05-07T10:42:58.909Z,98419.53
2018-05-07T10:45:27.159Z,98420.02
2018-05-07T10:47:56.186Z,98407.84
2018-05-07T10:50:25.006Z,98415.06
2018-05-07T10:52:53.264Z,98407.49
2018-05-07T10:55:21.528Z,98401.16
2018-05-07T10:57:49.781Z,98401.13
2018-05-07T11:00:18.797Z,98394.31
2018-05-07T11:02:47.596Z,98386.47
2018-05-07T11:05:16.065Z,98383.13
2018-05-07T11:07:44.313Z,98384.61
2018-05-07T11:10:13.326Z,98382.02
2018-05-07T11:12:41.855Z,98383.66
2018-05-07T11:15:10.098Z,98378.13
2018-05-07T11:17:39.430Z,98379.33
2018-05-07T11:20:07.673Z,98366.88
2018-05-07T11:22:35.940Z,98364.98
2018-05-07T11:25:04.180Z,98364.80
2018-05-07T11:27:34.221Z,98365.90
2018-05-07T11:30:02.473Z,98360.46
2018-05-07T11:32:31.485Z,98355.52
2018-05-07T11:34:59.741Z,98354.19
2018-05-07T11:37:28.761Z,98352.91
2018-05-07T11:39:57.007Z,98350.14
2018-05-07T11:42:27.211Z,98343.91
2018-05-07T11:44:56.244Z,98335.98
2018-05-07T11:47:24.535Z,98330.83
2018-05-07T11:49:52.733Z,98337.44
2018-05-07T11:52:20.975Z,98340.61
2018-05-07T11:54:49.225Z,98329.62
2018-05-07T11:57:18.228Z,98327.72
2018-05-07T11:59:47.008Z,98323.73
2018-05-07T12:02:16.568Z,98323.52
2018-05-07T12:04:44.825Z,98317.34
2018-05-07T12:07:13.071Z,98314.89
2018-05-07T12:09:42.792Z,98319.06
2018-05-07T12:12:11.040Z,98316.26
2018-05-07T12:14:43.769Z,98308.67
2018-05-07T12:17:12.018Z,98310.34
2018-05-07T12:19:40.256Z,98309.37
2018-05-07T12:22:08.518Z,98298.68
2018-05-07T12:24:36.866Z,98290.95
2018-05-07T12:27:05.116Z,98291.09
2018-05-07T12:29:33.933Z,98288.92
2018-05-07T12:32:02.178Z,98295.98
2018-05-07T12:34:31.187Z,98284.74
2018-05-07T12:36:59.436Z,98285.25
2018-05-07T12:39:29.060Z,98281.23
2018-05-07T12:41:57.313Z,98273.91
2018-05-07T12:44:25.566Z,98274.72
2018-05-07T12:46:53.907Z,98263.73
2018-05-07T12:49:22.280Z,98263.58
2018-05-07T12:51:51.138Z,98264.31
2018-05-07T12:54:20.147Z,98263.09
2018-05-07T12:56:52.220Z,98261.47
2018-05-07T12:59:20.714Z,98259.51
2018-05-07T13:01:49.267Z,98251.91
2018-05-07T13:04:17.760Z,98250.31
2018-05-07T13:06:46.186Z,98249.59
2018-05-07T13:09:15.207Z,98247.13
2018-05-07T13:11:45.012Z,98237.44
2018-05-07T13:14:14.054Z,98236.33
2018-05-07T13:16:46.072Z,98233.05
2018-05-07T13:19:15.011Z,98224.17
2018-05-07T13:21:43.260Z,98229.71
2018-05-07T13:24:12.280Z,98230.84
2018-05-07T13:26:42.563Z,98222.08
2018-05-07T13:29:11.584Z,98220.20
2018-05-07T13:31:39.832Z,98220.20
2018-05-07T13:34:08.849Z,98210.66
2018-05-07T13:36:37.097Z,98208.92
2018-05-07T13:39:07.037Z,98210.69
2018-05-07T13:41:35.915Z,98209.83
2018-05-07T13:44:04.922Z,98203.36
2018-05-07T13:46:33.170Z,98202.71
2018-05-07T13:49:01.422Z,98191.02
2018-05-07T13:51:30.273Z,98187.33
2018-05-07T13:53:58.520Z,98190.86
2018-05-07T13:56:27.540Z,98186.47
2018-05-07T13:58:55.784Z,98180.33
2018-05-07T14:01:25.399Z,98178.14
2018-05-07T14:03:55.477Z,98174.37
2018-05-07T14:06:24.503Z,98171.08
2018-05-07T14:08:53.525Z,98166.94
2018-05-07T14:11:21.777Z,98160.89
2018-05-07T14:13:50.794Z,98162.57
2018-05-07T14:16:19.673Z,98160.45
2018-05-07T14:18:49.414Z,98153.18
2018-05-07T14:21:18.850Z,98135.23
2018-05-07T14:23:47.084Z,98143.33
2018-05-07T14:26:15.374Z,98136.43
2018-05-07T14:28:44.351Z,98136.48
2018-05-07T14:31:12.597Z,98134.61
2018-05-07T14:33:42.162Z,98140.48
2018-05-07T14:36:11.921Z,98130.87
2018-05-07T14:38:40.998Z,98124.38
2018-05-07T14:41:09.180Z,98124.05
2018-05-07T14:43:39.136Z,98119.92
2018-05-07T14:46:07.421Z,98119.88
2018-05-07T14:48:35.678Z,98121.02
2018-05-07T14:51:05.809Z,98117.50
2018-05-07T14:56:06.981Z,98102.89
2018-05-07T14:58:36.285Z,98105.88
2018-05-07T15:01:04.494Z,98108.13
2018-05-07T15:03:33.509Z,98105.11
2018-05-07T15:06:01.857Z,98105.36
2018-05-07T15:08:30.718Z,98102.19
2018-05-07T15:10:59.801Z,98095.88
2018-05-07T15:13:29.570Z,98093.81
2018-05-07T15:15:58.797Z,98088.28
2018-05-07T15:18:27.037Z,98091.17
2018-05-07T15:20:57.175Z,98092.00
2018-05-07T15:23:25.433Z,98091.20
2018-05-07T15:25:55.061Z,98094.22
2018-05-07T15:28:23.309Z,98094.92
2018-05-07T15:30:51.557Z,98089.94
2018-05-07T15:33:19.800Z,98079.61
2018-05-07T15:35:48.682Z,98075.42
2018-05-07T15:38:18.091Z,98077.69
2018-05-07T15:40:46.336Z,98070.09
2018-05-07T15:43:15.568Z,98061.23
2018-05-07T15:45:43.904Z,98061.17
2018-05-07T15:48:12.147Z,98051.64
2018-05-07T15:50:40.400Z,98070.67
2018-05-07T15:53:08.765Z,98058.30
2018-05-07T15:55:37.010Z,98049.19
2018-05-07T15:58:06.851Z,98050.81
2018-05-07T16:00:35.118Z,98051.15
2018-05-07T16:03:03.488Z,98053.07
2018-05-07T16:05:32.385Z,98054.52
2018-05-07T16:08:03.283Z,98043.73
2018-05-07T16:10:32.629Z,98042.89
2018-05-07T16:13:01.104Z,98043.38
2018-05-07T16:15:30.127Z,98029.73
2018-05-07T16:17:58.381Z,98026.74
2018-05-07T16:20:29.276Z,98032.41
2018-05-07T16:22:57.509Z,98029.63
2018-05-07T16:25:25.754Z,98023.66
2018-05-07T16:27:54.765Z,98018.53
2018-05-07T16:30:23.522Z,98018.39
2018-05-07T16:32:51.766Z,98018.97
2018-05-07T16:35:20.010Z,98012.94
2018-05-07T16:37:51.597Z,98005.39
2018-05-07T16:40:19.859Z,98003.77
2018-05-07T16:42:48.853Z,98003.16
2018-05-07T16:45:17.813Z,97998.77
2018-05-07T16:47:46.083Z,97986.68
2018-05-07T16:50:14.331Z,97993.16
2018-05-07T16:52:43.348Z,97990.81
2018-05-07T16:55:12.505Z,97997.46
2018-05-07T16:57:40.766Z,97995.14
2018-05-07T17:00:09.009Z,97993.95
2018-05-07T17:02:37.270Z,97995.19
2018-05-07T17:05:06.282Z,97994.36
2018-05-07T17:07:34.531Z,97993.73
2018-05-07T17:10:04.260Z,97991.94
2018-05-07T17:12:33.707Z,97993.63
2018-05-07T17:15:01.958Z,97987.89
2018-05-07T17:17:30.218Z,97985.77
2018-05-07T17:19:58.480Z,97992.95
2018-05-07T17:22:26.725Z,97998.44
2018-05-07T17:24:55.571Z,97994.61
2018-05-07T17:27:25.085Z,97999.04
2018-05-07T17:29:53.339Z,98000.50
2018-05-07T17:32:21.589Z,97996.72
2018-05-07T17:34:50.617Z,97999.99
2018-05-07T17:37:18.873Z,98002.45
2018-05-07T17:39:47.852Z,98005.97
2018-05-07T17:42:16.862Z,98002.29
2018-05-07T17:45:04.619Z,98005.66
2018-05-07T17:47:50.637Z,98002.45
2018-05-07T17:50:18.900Z,98006.40
2018-05-07T17:52:47.151Z,98006.63
2018-05-07T17:55:15.406Z,98007.22
2018-05-07T17:57:44.405Z,98010.33
2018-05-07T18:00:12.667Z,98008.48
2018-05-07T18:02:41.689Z,98013.71
2018-05-07T18:05:09.939Z,98010.56
2018-05-07T18:07:38.956Z,98011.44
2018-05-07T18:10:09.416Z,98011.59
2018-05-07T18:12:37.662Z,98006.63
2018-05-07T18:15:05.920Z,98013.14
2018-05-07T18:17:34.172Z,98008.08
2018-05-07T18:20:03.194Z,98013.20
2018-05-07T18:22:32.129Z,98010.29
2018-05-07T18:25:00.390Z,98011.91
2018-05-07T18:27:28.642Z,98009.47
2018-05-07T18:29:59.118Z,98013.16
2018-05-07T18:32:28.208Z,98015.09
2018-05-07T18:34:57.145Z,98014.91
2018-05-07T18:37:26.626Z,98021.09
2018-05-07T18:39:56.662Z,98020.84
2018-05-07T18:42:25.589Z,98015.23
2018-05-07T18:44:53.841Z,98016.77
2018-05-07T18:47:22.108Z,98018.94
2018-05-07T18:49:50.370Z,98022.41
2018-05-07T18:52:19.377Z,98027.55
2018-05-07T18:54:47.694Z,98028.66
2018-05-07T18:57:15.951Z,98026.87
2018-05-07T18:59:45.234Z,98026.56
2018-05-07T19:02:14.946Z,98028.27
2018-05-07T19:04:43.894Z,98030.14
2018-05-07T19:07:12.329Z,98037.14
2018-05-07T19:09:42.321Z,98037.19
2018-05-07T19:12:11.334Z,98039.05
2018-05-07T19:14:39.581Z,98047.32
2018-05-07T19:17:09.321Z,98050.30
2018-05-07T19:19:37.578Z,98049.75
2018-05-07T19:22:05.825Z,98048.45
2018-05-07T19:24:34.845Z,98052.93
2018-05-07T19:27:03.105Z,98053.62
2018-05-07T19:29:32.354Z,98053.67
2018-05-07T19:32:01.565Z,98053.15
2018-05-07T19:34:29.818Z,98052.41
2018-05-07T19:36:58.074Z,98063.58
2018-05-07T19:39:26.327Z,98062.75
2018-05-07T19:41:55.342Z,98060.48
2018-05-07T19:44:23.593Z,98064.06
2018-05-07T19:46:51.901Z,98059.14
2018-05-07T19:49:20.173Z,98063.70
2018-05-07T19:51:49.178Z,98073.80
2018-05-07T19:54:17.424Z,98071.75
2018-05-07T19:56:46.472Z,98061.19
2018-05-07T19:59:14.711Z,98064.74
2018-05-07T20:01:42.969Z,98069.19
2018-05-07T20:04:11.995Z,98063.64
2018-05-07T20:06:40.253Z,98065.43
2018-05-07T20:09:09.078Z,98063.91
2018-05-07T20:11:37.333Z,98058.55
2018-05-07T20:14:05.581Z,98058.22
2018-05-07T20:16:34.607Z,98059.09
2018-05-07T20:19:02.859Z,98061.86
2018-05-07T20:21:31.125Z,98063.36
2018-05-07T20:24:00.135Z,98061.41
2018-05-07T20:26:28.393Z,98062.23
2018-05-07T20:28:56.640Z,98063.25
2018-05-07T20:31:24.896Z,98064.03
2018-05-07T20:33:53.836Z,98065.80
2018-05-07T20:36:22.857Z,98068.95
2018-05-07T20:38:51.113Z,98064.42
2018-05-07T20:41:19.929Z,98061.11
2018-05-07T20:43:48.312Z,98074.05
2018-05-07T20:46:16.567Z,98068.59
2018-05-07T20:48:44.812Z,98071.02
2018-05-07T20:51:13.837Z,98067.20
2018-05-07T20:53:42.093Z,98067.39
2018-05-07T20:56:11.105Z,98070.00
2018-05-07T20:58:39.353Z,98064.79
2018-05-07T21:01:08.382Z,98064.75
2018-05-07T21:03:36.635Z,98066.03
2018-05-07T21:06:04.879Z,98073.64
2018-05-07T21:08:33.139Z,98074.09
2018-05-07T21:11:01.397Z,98078.23
2018-05-07T21:13:29.662Z,98079.45
2018-05-07T21:15:57.917Z,98079.63
2018-05-07T21:18:26.183Z,98085.88
2018-05-07T21:20:56.329Z,98081.93
2018-05-07T21:23:24.583Z,98081.17
2018-05-07T21:25:52.841Z,98083.48
2018-05-07T21:28:21.863Z,98085.59
2018-05-07T21:30:50.112Z,98089.10
2018-05-07T21:33:19.693Z,98085.77
2018-05-07T21:35:47.985Z,98093.72
2018-05-07T21:38:16.817Z,98093.40
2018-05-07T21:40:45.576Z,98093.39
2018-05-07T21:43:14.580Z,98094.41
2018-05-07T21:45:42.828Z,98096.11
2018-05-07T21:48:11.854Z,98092.83
2018-05-07T21:50:40.111Z,98102.31
2018-05-07T21:53:09.859Z,98096.56
2018-05-07T21:55:38.110Z,98094.18
2018-05-07T21:58:06.377Z,98092.37
2018-05-07T22:00:36.223Z,98092.62
2018-05-07T22:03:05.467Z,98088.42
2018-05-07T22:05:34.761Z,98086.91
2018-05-07T22:08:04.232Z,98087.30
2018-05-07T22:10:32.471Z,98086.02
2018-05-07T22:13:01.653Z,98085.50
2018-05-07T22:15:33.667Z,98087.50
2018-05-07T22:18:02.853Z,98088.64
2018-05-07T22:20:31.855Z,98088.40
2018-05-07T22:23:00.391Z,98089.27
2018-05-07T22:25:29.412Z,98083.55
2018-05-07T22:27:57.659Z,98088.87
2018-05-07T22:30:26.687Z,98090.69
2018-05-07T22:32:55.566Z,98090.77
2018-05-07T22:35:24.598Z,98093.17
2018-05-07T22:37:52.836Z,98089.53
2018-05-07T22:40:21.099Z,98087.92
2018-05-07T22:42:49.585Z,98083.51
2018-05-07T22:45:19.051Z,98078.56
2018-05-07T22:47:50.827Z,98077.95
2018-05-07T22:50:19.852Z,98077.58
2018-05-07T22:52:48.114Z,98075.16
2018-05-07T22:55:21.951Z,98078.19
2018-05-07T22:57:50.211Z,98075.64
2018-05-07T23:00:19.670Z,98082.00
2018-05-07T23:02:48.626Z,98080.69
2018-05-07T23:05:17.425Z,98079.38
2018-05-07T23:07:45.674Z,98078.94
2018-05-07T23:10:13.933Z,98076.41
2018-05-07T23:12:42.190Z,98079.55
2018-05-07T23:15:12.098Z,98069.83
2018-05-07T23:17:41.125Z,98065.22
2018-05-07T23:20:09.374Z,98066.50
2018-05-07T23:22:38.406Z,98071.44
2018-05-07T23:25:06.652Z,98063.13
2018-05-07T23:27:34.913Z,98067.18
2018-05-07T23:30:03.936Z,98058.95
2018-05-07T23:32:32.196Z,98058.53
2018-05-07T23:35:00.448Z,98056.78
2018-05-07T23:37:29.352Z,98056.73
2018-05-07T23:39:58.373Z,98059.42
2018-05-07T23:42:26.638Z,98047.06
2018-05-07T23:44:54.893Z,98048.36
2018-05-07T23:47:24.149Z,98048.55
2018-05-07T23:49:52.403Z,98044.77
2018-05-07T23:52:20.661Z,98042.26
2018-05-07T23:54:48.914Z,98045.67
2018-05-07T23:57:18.964Z,98042.48
2018-05-07T23:59:47.785Z,98041.17
